createdAt,value
2018-09-30T00:00:51.632Z,7.47
2018-09-30T00:03:21.276Z,5.23
2018-09-30T00:05:49.897Z,2.77
2018-09-30T00:08:18.802Z,3.90
2018-09-30T00:10:47.513Z,3.10
2018-09-30T00:13:16.152Z,4.80
2018-09-30T00:15:45.281Z,4.67
2018-09-30T00:18:14.078Z,4.63
2018-09-30T00:20:42.740Z,5.87
2018-09-30T00:23:11.435Z,5.50
2018-09-30T00:25:45.456Z,2.90
2018-09-30T00:28:14.649Z,3.17
2018-09-30T00:30:43.321Z,2.07
2018-09-30T00:33:13.176Z,7.73
2018-09-30T00:35:41.845Z,3.27
2018-09-30T00:38:10.654Z,3.60
2018-09-30T00:40:41.302Z,2.50
2018-09-30T00:43:10.437Z,5.37
2018-09-30T00:45:40.303Z,3.17
2018-09-30T00:48:09.129Z,4.50
2018-09-30T00:50:39.436Z,2.77
2018-09-30T00:53:07.955Z,3.60
2018-09-30T00:55:36.750Z,4.03
2018-09-30T00:58:05.330Z,2.40
2018-09-30T01:00:33.896Z,3.33
2018-09-30T01:03:02.599Z,3.13
2018-09-30T01:05:31.503Z,3.03
2018-09-30T01:08:00.380Z,5.07
2018-09-30T01:10:29.503Z,4.63
2018-09-30T01:12:58.452Z,4.20
2018-09-30T01:15:27.236Z,4.73
2018-09-30T01:17:56.497Z,3.10
2018-09-30T01:20:26.448Z,3.77
2018-09-30T01:22:55.073Z,3.97
2018-09-30T01:25:24.107Z,3.63
2018-09-30T01:27:52.759Z,3.83
2018-09-30T01:30:21.388Z,3.63
2018-09-30T01:32:49.983Z,3.33
2018-09-30T01:35:18.997Z,2.37
2018-09-30T01:37:48.424Z,4.20
2018-09-30T01:40:16.986Z,3.00
2018-09-30T01:42:46.769Z,5.00
2018-09-30T01:45:15.440Z,3.97
2018-09-30T01:47:44.791Z,3.63
2018-09-30T01:50:14.271Z,3.33
2018-09-30T01:52:50.596Z,4.07
2018-09-30T01:55:20.077Z,3.17
2018-09-30T01:57:48.668Z,3.23
2018-09-30T02:00:18.090Z,4.70
2018-09-30T02:02:47.228Z,3.80
2018-09-30T02:05:17.248Z,3.90
2018-09-30T02:07:47.149Z,3.33
2018-09-30T02:10:16.145Z,3.13
2018-09-30T02:12:45.516Z,5.47
2018-09-30T02:15:14.194Z,3.83
2018-09-30T02:17:42.751Z,3.30
2018-09-30T02:20:11.435Z,4.47
2018-09-30T02:22:40.499Z,4.37
2018-09-30T02:25:09.133Z,6.60
2018-09-30T02:27:37.790Z,4.97
2018-09-30T02:30:07.169Z,4.37
2018-09-30T02:32:35.769Z,2.30
2018-09-30T02:35:04.491Z,5.07
2018-09-30T02:37:33.581Z,4.20
2018-09-30T02:40:02.292Z,3.90
2018-09-30T02:42:31.150Z,4.37
2018-09-30T02:44:59.882Z,2.23
2018-09-30T02:47:28.521Z,3.13
2018-09-30T02:49:57.285Z,4.87
2018-09-30T02:52:26.388Z,6.60
2018-09-30T02:54:54.958Z,5.37
2018-09-30T02:57:23.585Z,2.10
2018-09-30T02:59:52.158Z,4.13
2018-09-30T03:02:20.699Z,3.63
2018-09-30T03:04:49.358Z,3.70
2018-09-30T03:07:23.226Z,3.53
2018-09-30T03:09:51.926Z,6.67
2018-09-30T03:12:20.529Z,3.03
2018-09-30T03:14:49.794Z,4.73
2018-09-30T03:17:18.419Z,4.53
2018-09-30T03:19:47.230Z,7.00
2018-09-30T03:22:15.782Z,7.80
2018-09-30T03:24:44.321Z,4.63
2018-09-30T03:27:13.244Z,3.13
2018-09-30T03:29:42.219Z,4.57
2018-09-30T03:32:10.824Z,4.37
2018-09-30T03:34:39.505Z,3.80
2018-09-30T03:37:14.949Z,4.73
2018-09-30T03:39:43.600Z,3.10
2018-09-30T03:42:12.136Z,5.00
2018-09-30T03:44:40.765Z,4.23
2018-09-30T03:47:09.374Z,4.77
2018-09-30T03:49:38.222Z,4.97
2018-09-30T03:52:06.892Z,7.70
2018-09-30T03:54:35.524Z,4.67
2018-09-30T03:57:04.129Z,5.70
2018-09-30T03:59:33.222Z,3.57
2018-09-30T04:02:02.164Z,7.40
2018-09-30T04:04:30.870Z,4.80
2018-09-30T04:07:00.069Z,5.67
2018-09-30T04:09:29.267Z,6.47
2018-09-30T04:11:57.923Z,4.50
2018-09-30T04:14:26.591Z,5.83
2018-09-30T04:16:55.222Z,3.97
2018-09-30T04:19:24.376Z,3.33
2018-09-30T04:21:53.057Z,5.90
2018-09-30T04:24:22.078Z,3.80
2018-09-30T04:26:50.657Z,5.30
2018-09-30T04:29:19.326Z,4.47
2018-09-30T04:31:48.277Z,6.90
2018-09-30T04:34:16.867Z,4.43
2018-09-30T04:36:45.497Z,6.17
2018-09-30T04:39:14.097Z,4.80
2018-09-30T04:41:43.348Z,3.77
2018-09-30T04:44:11.897Z,4.60
2018-09-30T04:46:40.802Z,7.20
2018-09-30T04:49:09.388Z,5.47
2018-09-30T04:51:38.496Z,4.10
2018-09-30T04:54:07.104Z,6.13
2018-09-30T04:56:35.814Z,5.40
2018-09-30T04:59:04.561Z,4.67
2018-09-30T05:01:33.825Z,4.00
2018-09-30T05:04:02.746Z,7.30
2018-09-30T05:06:31.313Z,7.03
2018-09-30T05:09:01.809Z,3.30
2018-09-30T05:11:30.886Z,3.87
2018-09-30T05:14:00.343Z,3.57
2018-09-30T05:16:29.151Z,8.23
2018-09-30T05:18:59.429Z,3.97
2018-09-30T05:21:28.129Z,4.63
2018-09-30T05:23:57.157Z,2.90
2018-09-30T05:26:26.296Z,5.20
2018-09-30T05:28:56.459Z,3.90
2018-09-30T05:31:26.458Z,2.90
2018-09-30T05:33:55.570Z,10.70
2018-09-30T05:36:25.000Z,2.57
2018-09-30T05:38:53.698Z,3.40
2018-09-30T05:41:22.615Z,3.63
2018-09-30T05:43:51.283Z,5.73
2018-09-30T05:46:20.475Z,7.63
2018-09-30T05:48:49.680Z,5.23
2018-09-30T05:51:18.360Z,3.90
2018-09-30T05:53:46.924Z,5.57
2018-09-30T05:56:15.809Z,6.00
2018-09-30T05:58:44.723Z,3.57
2018-09-30T06:01:13.854Z,4.23
2018-09-30T06:03:43.340Z,4.00
2018-09-30T06:06:12.506Z,5.83
2018-09-30T06:08:41.121Z,3.37
2018-09-30T06:11:10.396Z,5.33
2018-09-30T06:13:39.800Z,8.40
2018-09-30T06:16:08.687Z,4.87
2018-09-30T06:18:38.154Z,5.17
2018-09-30T06:21:07.119Z,4.67
2018-09-30T06:23:36.199Z,7.00
2018-09-30T06:26:05.984Z,7.90
2018-09-30T06:28:34.848Z,4.23
2018-09-30T06:31:03.643Z,7.27
2018-09-30T06:33:32.735Z,4.60
2018-09-30T06:36:01.856Z,4.70
2018-09-30T06:38:30.675Z,3.67
2018-09-30T06:40:59.774Z,2.70
2018-09-30T06:43:29.272Z,2.97
2018-09-30T06:45:58.650Z,4.30
2018-09-30T06:48:27.406Z,3.37
2018-09-30T06:50:57.562Z,3.63
2018-09-30T06:53:26.217Z,4.90
2018-09-30T06:55:55.757Z,2.73
2018-09-30T06:58:24.466Z,6.50
2018-09-30T07:00:53.683Z,4.43
2018-09-30T07:03:22.285Z,4.10
2018-09-30T07:05:50.947Z,5.53
2018-09-30T07:08:20.065Z,2.73
2018-09-30T07:10:48.872Z,5.13
2018-09-30T07:13:17.509Z,8.87
2018-09-30T07:15:46.127Z,6.07
2018-09-30T07:18:14.737Z,6.63
2018-09-30T07:20:43.783Z,3.80
2018-09-30T07:23:12.443Z,2.43
2018-09-30T07:25:41.511Z,4.73
2018-09-30T07:28:10.782Z,3.07
2018-09-30T07:30:39.680Z,2.83
2018-09-30T07:33:08.577Z,3.63
2018-09-30T07:35:37.919Z,4.20
2018-09-30T07:38:06.609Z,5.80
2018-09-30T07:40:35.285Z,4.77
2018-09-30T07:43:04.659Z,4.43
2018-09-30T07:45:33.772Z,7.00
2018-09-30T07:48:02.377Z,6.07
2018-09-30T07:50:31.034Z,4.83
2018-09-30T07:52:59.964Z,4.20
2018-09-30T07:55:28.703Z,7.67
2018-09-30T07:57:57.460Z,3.17
2018-09-30T08:00:25.988Z,3.90
2018-09-30T08:02:55.287Z,2.77
2018-09-30T08:05:23.940Z,5.87
2018-09-30T08:07:52.911Z,5.20
2018-09-30T08:10:22.554Z,6.40
2018-09-30T08:12:51.517Z,2.03
2018-09-30T08:15:20.312Z,4.27
2018-09-30T08:17:49.381Z,3.37
2018-09-30T08:20:17.964Z,4.53
2018-09-30T08:22:47.105Z,4.33
2018-09-30T08:25:15.897Z,4.67
2018-09-30T08:29:21.722Z,3.10
2018-09-30T08:31:50.759Z,4.40
2018-09-30T08:34:19.965Z,4.57
2018-09-30T08:36:48.873Z,5.23
2018-09-30T08:39:18.469Z,4.57
2018-09-30T08:41:47.835Z,7.77
2018-09-30T08:44:17.393Z,4.67
2018-09-30T08:46:46.036Z,4.57
2018-09-30T08:49:14.801Z,5.13
2018-09-30T08:51:44.142Z,3.60
2018-09-30T08:54:13.082Z,3.30
2018-09-30T08:56:42.323Z,5.63
2018-09-30T08:59:11.472Z,5.40
2018-09-30T09:01:40.577Z,4.27
2018-09-30T09:04:09.466Z,4.03
2018-09-30T09:06:38.911Z,4.73
2018-09-30T09:09:11.545Z,4.30
2018-09-30T09:11:40.833Z,3.83
2018-09-30T09:14:10.272Z,5.10
2018-09-30T09:16:39.248Z,5.73
2018-09-30T09:19:09.565Z,3.57
2018-09-30T09:21:38.319Z,5.33
2018-09-30T09:24:07.067Z,3.03
2018-09-30T09:26:36.057Z,3.53
2018-09-30T09:29:04.651Z,4.43
2018-09-30T09:31:33.377Z,5.80
2018-09-30T09:34:01.944Z,3.97
2018-09-30T09:36:33.880Z,2.70
2018-09-30T09:39:07.203Z,4.20
2018-09-30T09:41:38.469Z,6.17
2018-09-30T09:44:07.322Z,4.50
2018-09-30T09:46:35.891Z,3.43
2018-09-30T09:49:06.871Z,3.70
2018-09-30T09:51:36.542Z,3.87
2018-09-30T09:54:05.914Z,4.70
2018-09-30T09:56:34.735Z,4.67
2018-09-30T09:59:03.547Z,9.33
2018-09-30T10:01:32.270Z,3.60
2018-09-30T10:04:00.997Z,5.53
2018-09-30T10:06:30.508Z,6.23
2018-09-30T10:08:59.601Z,5.17
2018-09-30T10:11:28.960Z,6.70
2018-09-30T10:13:58.169Z,3.67
2018-09-30T10:16:27.375Z,4.90
2018-09-30T10:18:56.317Z,4.97
2018-09-30T10:21:26.244Z,3.50
2018-09-30T10:23:54.800Z,2.30
2018-09-30T10:26:23.735Z,4.13
2018-09-30T10:28:53.093Z,4.13
2018-09-30T10:31:21.721Z,5.83
2018-09-30T10:33:50.248Z,4.93
2018-09-30T10:36:19.082Z,3.10
2018-09-30T10:38:48.387Z,5.57
2018-09-30T10:41:17.611Z,3.57
2018-09-30T10:43:46.548Z,6.20
2018-09-30T10:46:15.598Z,3.63
2018-09-30T10:48:44.300Z,5.07
2018-09-30T10:51:13.504Z,2.90
2018-09-30T10:53:42.081Z,4.47
2018-09-30T10:56:10.939Z,2.40
2018-09-30T10:58:40.530Z,4.20
2018-09-30T11:01:09.346Z,1.67
2018-09-30T11:03:38.522Z,2.90
2018-09-30T11:06:07.573Z,2.60
2018-09-30T11:08:36.380Z,5.73
2018-09-30T11:11:05.270Z,2.80
2018-09-30T11:13:34.123Z,2.97
2018-09-30T11:16:02.860Z,3.60
2018-09-30T11:18:34.026Z,3.47
2018-09-30T11:21:03.234Z,4.07
2018-09-30T11:23:32.509Z,3.67
2018-09-30T11:26:01.244Z,2.90
2018-09-30T11:28:29.971Z,2.33
2018-09-30T11:30:58.894Z,3.10
2018-09-30T11:33:29.119Z,2.07
2018-09-30T11:35:58.258Z,2.77
2018-09-30T11:38:27.986Z,3.13
2018-09-30T11:40:57.457Z,1.80
2018-09-30T11:43:26.240Z,4.30
2018-09-30T11:45:55.176Z,5.23
2018-09-30T11:48:23.999Z,3.97
2018-09-30T11:50:53.083Z,2.13
2018-09-30T11:53:21.770Z,2.33
2018-09-30T11:55:50.924Z,5.30
2018-09-30T11:58:21.967Z,3.63
2018-09-30T12:00:50.950Z,1.97
2018-09-30T12:03:19.792Z,2.10
2018-09-30T12:05:48.448Z,1.80
2018-09-30T12:08:17.063Z,2.30
2018-09-30T12:10:45.775Z,1.40
2018-09-30T12:13:14.424Z,1.07
2018-09-30T12:15:44.041Z,1.93
2018-09-30T12:18:13.257Z,2.97
2018-09-30T12:20:43.019Z,2.03
2018-09-30T12:23:13.728Z,3.63
2018-09-30T12:25:43.737Z,2.03
2018-09-30T12:28:13.185Z,2.97
2018-09-30T12:30:42.337Z,3.73
2018-09-30T12:33:11.407Z,2.53
2018-09-30T12:35:40.583Z,1.90
2018-09-30T12:38:09.230Z,3.47
2018-09-30T12:40:39.145Z,2.03
2018-09-30T12:43:07.962Z,1.50
2018-09-30T12:45:36.847Z,1.70
2018-09-30T12:48:05.403Z,1.87
2018-09-30T12:50:34.438Z,2.10
2018-09-30T12:53:03.026Z,1.07
2018-09-30T12:55:31.894Z,3.50
2018-09-30T12:58:01.344Z,1.97
2018-09-30T13:00:30.028Z,1.50
2018-09-30T13:02:59.217Z,2.97
2018-09-30T13:05:27.853Z,3.03
2018-09-30T13:10:35.394Z,1.90
2018-09-30T13:13:06.194Z,1.47
2018-09-30T13:15:35.174Z,2.33
2018-09-30T13:18:04.304Z,2.53
2018-09-30T13:20:32.996Z,3.70
2018-09-30T13:23:01.798Z,2.93
2018-09-30T13:25:31.383Z,1.20
2018-09-30T13:28:00.205Z,1.73
2018-09-30T13:30:29.890Z,1.17
2018-09-30T13:32:59.253Z,1.60
2018-09-30T13:35:27.964Z,2.20
2018-09-30T13:37:56.743Z,2.70
2018-09-30T13:40:26.594Z,2.10
2018-09-30T13:42:56.355Z,1.37
2018-09-30T13:45:25.878Z,2.00
2018-09-30T13:47:54.938Z,2.00
2018-09-30T13:50:25.773Z,3.17
2018-09-30T13:52:54.604Z,3.27
2018-09-30T13:55:24.369Z,1.93
2018-09-30T13:57:53.070Z,3.43
2018-09-30T14:00:21.981Z,1.87
2018-09-30T14:02:50.549Z,2.67
2018-09-30T14:05:19.295Z,2.40
2018-09-30T14:07:49.641Z,1.93
2018-09-30T14:10:19.782Z,1.73
2018-09-30T14:12:49.245Z,1.93
2018-09-30T14:15:18.717Z,1.97
2018-09-30T14:17:50.044Z,2.37
2018-09-30T14:20:19.459Z,2.43
2018-09-30T14:22:48.121Z,2.13
2018-09-30T14:25:16.972Z,1.53
2018-09-30T14:27:46.358Z,1.63
2018-09-30T14:30:16.826Z,2.57
2018-09-30T14:32:48.136Z,1.23
2018-09-30T14:35:16.967Z,3.17
2018-09-30T14:37:45.614Z,4.23
2018-09-30T14:40:14.693Z,2.00
2018-09-30T14:42:43.542Z,2.10
2018-09-30T14:45:12.472Z,1.57
2018-09-30T14:47:41.281Z,3.63
2018-09-30T14:50:09.884Z,5.53
2018-09-30T14:52:38.619Z,1.33
2018-09-30T14:55:06.956Z,2.37
2018-09-30T14:57:36.478Z,2.50
2018-09-30T15:00:06.208Z,1.73
2018-09-30T15:02:35.267Z,2.77
2018-09-30T15:05:04.351Z,1.27
2018-09-30T15:07:33.034Z,1.73
2018-09-30T15:10:01.721Z,2.00
2018-09-30T15:12:33.064Z,1.40
2018-09-30T15:15:01.646Z,2.97
2018-09-30T15:17:30.300Z,2.07
2018-09-30T15:19:59.057Z,2.60
2018-09-30T15:22:27.805Z,3.07
2018-09-30T15:24:56.569Z,2.87
2018-09-30T15:27:25.538Z,2.73
2018-09-30T15:29:54.362Z,3.33
2018-09-30T15:32:23.300Z,2.60
2018-09-30T15:34:53.006Z,2.27
2018-09-30T15:37:21.748Z,4.10
2018-09-30T15:39:50.382Z,2.23
2018-09-30T15:42:19.060Z,2.47
2018-09-30T15:44:47.820Z,3.50
2018-09-30T15:47:17.942Z,1.93
2018-09-30T15:49:47.397Z,2.73
2018-09-30T15:52:16.292Z,4.10
2018-09-30T15:54:45.083Z,4.80
2018-09-30T15:57:14.362Z,4.20
2018-09-30T15:59:43.046Z,2.87
2018-09-30T16:02:11.781Z,3.50
2018-09-30T16:04:41.315Z,3.87
2018-09-30T16:07:10.072Z,3.50
2018-09-30T16:09:38.660Z,3.80
2018-09-30T16:12:07.274Z,2.73
2018-09-30T16:14:35.914Z,2.40
2018-09-30T16:17:05.989Z,2.57
2018-09-30T16:19:36.289Z,4.07
2018-09-30T16:22:06.962Z,2.10
2018-09-30T16:24:35.800Z,1.97
2018-09-30T16:27:04.899Z,4.30
2018-09-30T16:29:34.997Z,1.97
2018-09-30T16:32:05.159Z,2.63
2018-09-30T16:34:35.941Z,2.97
2018-09-30T16:37:05.983Z,2.90
2018-09-30T16:39:36.449Z,1.60
2018-09-30T16:42:05.114Z,2.87
2018-09-30T16:44:35.139Z,4.80
2018-09-30T16:47:05.914Z,2.23
2018-09-30T16:49:36.264Z,3.03
2018-09-30T16:52:05.061Z,2.47
2018-09-30T16:54:34.020Z,2.37
2018-09-30T16:57:02.623Z,1.63
2018-09-30T16:59:31.455Z,2.40
2018-09-30T17:02:00.489Z,3.17
2018-09-30T17:04:29.136Z,2.80
2018-09-30T17:07:00.110Z,2.23
2018-09-30T17:09:29.060Z,2.60
2018-09-30T17:11:57.698Z,2.67
2018-09-30T17:14:26.746Z,2.40
2018-09-30T17:16:55.320Z,2.53
2018-09-30T17:19:24.453Z,3.07
2018-09-30T17:21:53.221Z,3.63
2018-09-30T17:24:21.813Z,3.10
2018-09-30T17:26:50.402Z,2.40
2018-09-30T17:29:19.504Z,2.47
2018-09-30T17:31:48.440Z,3.03
2018-09-30T17:34:17.088Z,3.30
2018-09-30T17:36:45.785Z,3.77
2018-09-30T17:39:14.438Z,4.13
2018-09-30T17:41:43.409Z,2.73
2018-09-30T17:44:12.227Z,5.77
2018-09-30T17:46:41.227Z,1.60
2018-09-30T17:49:09.777Z,3.27
2018-09-30T17:51:39.283Z,3.33
2018-09-30T17:54:08.061Z,2.60
2018-09-30T17:56:36.759Z,3.13
2018-09-30T17:59:05.936Z,3.80
2018-09-30T18:01:34.601Z,6.53
2018-09-30T18:04:03.556Z,4.47
2018-09-30T18:06:32.155Z,8.23
2018-09-30T18:09:00.764Z,4.90
2018-09-30T18:11:30.595Z,5.30
2018-09-30T18:13:59.151Z,5.23
2018-09-30T18:16:28.108Z,6.27
2018-09-30T18:18:57.096Z,5.43
2018-09-30T18:21:27.193Z,4.07
2018-09-30T18:23:59.156Z,5.40
2018-09-30T18:26:29.870Z,4.37
2018-09-30T18:28:58.834Z,5.70
2018-09-30T18:31:30.393Z,6.50
2018-09-30T18:33:59.479Z,7.13
2018-09-30T18:36:29.900Z,6.00
2018-09-30T18:39:00.390Z,5.20
2018-09-30T18:41:30.583Z,7.53
2018-09-30T18:44:00.462Z,5.20
2018-09-30T18:46:30.693Z,5.77
2018-09-30T18:49:02.083Z,7.27
2018-09-30T18:51:31.821Z,4.27
2018-09-30T18:54:00.742Z,6.73
2018-09-30T18:56:31.214Z,6.73
2018-09-30T18:59:01.574Z,5.00
2018-09-30T19:01:32.643Z,7.60
2018-09-30T19:04:02.849Z,5.27
2018-09-30T19:06:32.956Z,8.03
2018-09-30T19:09:04.366Z,7.57
2018-09-30T19:11:34.240Z,4.60
2018-09-30T19:14:04.421Z,7.47
2018-09-30T19:16:35.112Z,7.40
2018-09-30T19:19:06.554Z,5.63
2018-09-30T19:21:36.882Z,8.20
2018-09-30T19:24:07.963Z,4.70
2018-09-30T19:26:37.905Z,5.97
2018-09-30T19:29:08.310Z,7.33
2018-09-30T19:31:38.700Z,8.07
2018-09-30T19:34:09.143Z,6.63
2018-09-30T19:36:39.855Z,6.50
2018-09-30T19:39:12.021Z,8.20
2018-09-30T19:41:42.011Z,7.10
2018-09-30T19:44:12.163Z,8.03
2018-09-30T19:46:42.419Z,5.73
2018-09-30T19:49:12.998Z,5.80
2018-09-30T19:51:42.615Z,6.00
2018-09-30T19:54:13.025Z,6.87
2018-09-30T19:56:43.901Z,6.47
2018-09-30T19:59:13.972Z,6.43
2018-09-30T20:01:44.223Z,8.57
2018-09-30T20:04:14.571Z,7.63
2018-09-30T20:06:46.114Z,6.67
2018-09-30T20:09:16.315Z,7.57
2018-09-30T20:11:46.781Z,6.60
2018-09-30T20:14:16.257Z,6.63
2018-09-30T20:16:46.262Z,7.90
2018-09-30T20:19:17.010Z,6.63
2018-09-30T20:21:47.155Z,9.10
2018-09-30T20:24:17.099Z,8.03
2018-09-30T20:26:48.047Z,10.80
2018-09-30T20:29:19.285Z,8.73
2018-09-30T20:31:49.332Z,9.50
2018-09-30T20:34:19.646Z,8.23
2018-09-30T20:36:49.521Z,6.90
2018-09-30T20:39:20.181Z,7.97
2018-09-30T20:41:49.809Z,7.90
2018-09-30T20:44:19.744Z,9.73
2018-09-30T20:46:50.265Z,8.93
2018-09-30T20:49:22.047Z,8.07
2018-09-30T20:51:52.982Z,8.60
2018-09-30T20:54:21.597Z,9.80
2018-09-30T20:56:50.614Z,10.33
2018-09-30T20:59:19.431Z,8.43
2018-09-30T21:01:48.598Z,7.67
2018-09-30T21:04:17.239Z,7.90
2018-09-30T21:06:46.228Z,8.70
2018-09-30T21:09:17.462Z,8.33
2018-09-30T21:11:46.257Z,7.47
2018-09-30T21:14:15.239Z,8.20
2018-09-30T21:16:43.822Z,8.50
2018-09-30T21:19:12.892Z,9.63
2018-09-30T21:21:42.372Z,8.53
2018-09-30T21:24:11.110Z,7.33
2018-09-30T21:26:40.045Z,7.17
2018-09-30T21:29:09.432Z,8.73
2018-09-30T21:31:38.566Z,8.17
2018-09-30T21:34:07.705Z,7.20
2018-09-30T21:36:36.517Z,10.53
2018-09-30T21:39:08.144Z,7.83
2018-09-30T21:41:37.313Z,7.60
2018-09-30T21:44:07.760Z,7.57
2018-09-30T21:46:39.019Z,7.20
2018-09-30T21:49:09.017Z,10.23
2018-09-30T21:51:39.837Z,9.77
2018-09-30T21:54:09.879Z,7.67
2018-09-30T21:56:38.599Z,6.73
2018-09-30T21:59:08.853Z,8.93
2018-09-30T22:01:38.897Z,8.30
2018-09-30T22:04:09.138Z,9.33
2018-09-30T22:06:39.773Z,9.50
2018-09-30T22:09:08.536Z,8.90
2018-09-30T22:11:37.983Z,8.03
2018-09-30T22:14:07.167Z,8.97
2018-09-30T22:16:36.804Z,9.23
2018-09-30T22:19:05.723Z,10.10
2018-09-30T22:21:35.004Z,11.50
2018-09-30T22:24:03.632Z,10.30
2018-09-30T22:26:32.722Z,8.37
2018-09-30T22:29:01.540Z,8.30
2018-09-30T22:31:30.369Z,9.47
2018-09-30T22:33:59.542Z,7.60
2018-09-30T22:36:28.174Z,7.53
2018-09-30T22:38:56.889Z,13.27
2018-09-30T22:41:25.492Z,11.93
2018-09-30T22:43:55.365Z,9.87
2018-09-30T22:46:24.058Z,12.03
2018-09-30T22:48:52.646Z,11.40
2018-09-30T22:51:21.766Z,10.77
2018-09-30T22:53:50.638Z,9.40
2018-09-30T22:56:19.731Z,12.03
2018-09-30T22:58:48.301Z,10.33
2018-09-30T23:01:17.282Z,10.97
2018-09-30T23:03:45.916Z,10.20
2018-09-30T23:06:14.610Z,9.50
2018-09-30T23:08:43.923Z,9.97
2018-09-30T23:11:12.469Z,11.47
2018-09-30T23:13:41.238Z,11.03
2018-09-30T23:16:09.993Z,12.20
2018-09-30T23:18:38.655Z,9.27
2018-09-30T23:21:07.268Z,10.23
2018-09-30T23:23:35.949Z,11.87
2018-09-30T23:26:04.934Z,13.87
2018-09-30T23:28:34.344Z,11.33
2018-09-30T23:31:03.156Z,12.43
2018-09-30T23:33:32.307Z,14.57
2018-09-30T23:36:01.410Z,10.67
2018-09-30T23:38:30.254Z,10.53
2018-09-30T23:40:58.952Z,9.20
2018-09-30T23:43:27.917Z,14.37
2018-09-30T23:45:56.517Z,14.67
2018-09-30T23:48:26.178Z,9.70
2018-09-30T23:50:55.029Z,12.07
2018-09-30T23:53:23.635Z,11.93
2018-09-30T23:55:52.344Z,12.27
2018-09-30T23:58:21.310Z,9.97
